createdAt,value
2023-04-02T00:02:53.132Z,4.6
2023-04-02T00:07:53.094Z,4.3
2023-04-02T00:12:53.094Z,4.3
2023-04-02T00:22:53.879Z,4.6
2023-04-02T00:27:53.488Z,4.6
2023-04-02T00:32:53.095Z,4.7
2023-04-02T00:37:53.067Z,4.7
2023-04-02T00:42:53.114Z,4.8
2023-04-02T00:47:53.238Z,4.9
2023-04-02T00:52:53.132Z,5.7
2023-04-02T00:57:53.096Z,5.7
2023-04-02T01:02:53.168Z,5.7
2023-04-02T01:07:53.094Z,5.7
2023-04-02T01:12:53.126Z,5.7
2023-04-02T01:17:53.080Z,5.7
2023-04-02T01:22:53.077Z,5.6
2023-04-02T01:27:53.127Z,5.6
2023-04-02T01:32:53.157Z,5.6
2023-04-02T01:37:53.635Z,5.6
2023-04-02T01:42:53.141Z,7.3
2023-04-02T01:47:53.125Z,7.3
2023-04-02T01:52:53.107Z,6
2023-04-02T01:57:53.106Z,7.7
2023-04-02T02:02:53.131Z,8.3
2023-04-02T02:07:53.107Z,8.3
2023-04-02T02:17:54.050Z,8.2
2023-04-02T02:22:53.085Z,8.3
2023-04-02T02:27:53.110Z,8.3
2023-04-02T02:32:53.175Z,8.2
2023-04-02T02:37:53.114Z,7.8
2023-04-02T02:42:53.146Z,7.3
2023-04-02T02:47:53.229Z,7.3
2023-04-02T02:52:53.089Z,7.7
2023-04-02T02:57:53.086Z,7.7
2023-04-02T03:02:53.121Z,7.8
2023-04-02T03:07:53.113Z,8.9
2023-04-02T03:12:53.066Z,8.9
2023-04-02T03:17:53.126Z,9.5
2023-04-02T03:22:53.081Z,9.5
2023-04-02T03:27:53.099Z,9.5
2023-04-02T03:32:53.146Z,9.5
2023-04-02T03:37:53.102Z,9.5
2023-04-02T03:42:53.165Z,9.5
2023-04-02T03:47:53.136Z,9.5
2023-04-02T03:52:53.094Z,9.6
2023-04-02T04:03:14.594Z,8.5
2023-04-02T04:08:18.233Z,9.65
2023-04-02T04:12:53.152Z,10.8
2023-04-02T04:17:53.148Z,9.85
2023-04-02T04:22:53.159Z,10.8
2023-04-02T04:27:53.089Z,10.4
2023-04-02T04:32:53.226Z,10.5
2023-04-02T04:37:53.101Z,10.8
2023-04-02T04:42:53.103Z,10.5
2023-04-02T04:47:53.248Z,10.5
2023-04-02T04:52:53.106Z,10.9
2023-04-02T04:57:53.278Z,10.9
2023-04-02T05:02:53.282Z,10.9
2023-04-02T05:07:53.161Z,11.2
2023-04-02T05:12:53.173Z,10.9
2023-04-02T05:17:53.295Z,10.9
2023-04-02T05:22:53.154Z,10.8
2023-04-02T05:27:53.105Z,10.4
2023-04-02T05:32:53.325Z,10.4
2023-04-02T05:37:53.097Z,10.4
2023-04-02T05:42:53.168Z,10.3
2023-04-02T05:47:53.359Z,10.3
2023-04-02T05:52:53.135Z,11
2023-04-02T05:58:14.012Z,11.3
2023-04-02T06:02:53.393Z,12.4
2023-04-02T06:07:53.221Z,12.4
2023-04-02T06:12:53.235Z,12.4
2023-04-02T06:17:53.566Z,12.6
2023-04-02T06:22:53.141Z,12.6
2023-04-02T06:27:53.276Z,12.8
2023-04-02T06:32:53.616Z,12.8
2023-04-02T06:37:53.210Z,12.8
2023-04-02T06:42:53.244Z,12.9
2023-04-02T06:47:53.327Z,12.8
2023-04-02T06:52:53.204Z,12.9
2023-04-02T06:57:53.239Z,13.3
2023-04-02T07:02:53.402Z,13.6
2023-04-02T07:07:53.193Z,13.6
2023-04-02T07:12:53.163Z,13.6
2023-04-02T07:17:53.176Z,14.7
2023-04-02T07:22:53.208Z,14.8
2023-04-02T07:27:53.135Z,14.9
2023-04-02T07:32:53.298Z,14.9
2023-04-02T07:37:53.352Z,14.9
2023-04-02T07:42:53.309Z,14.8
2023-04-02T07:47:53.276Z,14.9
2023-04-02T07:52:53.317Z,15
2023-04-02T07:57:53.194Z,14.9
2023-04-02T08:02:53.379Z,14.4
2023-04-02T08:07:53.176Z,14.9
2023-04-02T08:12:53.186Z,14.4
2023-04-02T08:17:53.241Z,14.4
2023-04-02T08:22:53.199Z,14
2023-04-02T08:27:53.167Z,13.9
2023-04-02T08:32:53.551Z,10.4
2023-04-02T08:37:53.191Z,10.4
2023-04-02T08:42:53.189Z,10.4
2023-04-02T08:47:56.802Z,10.4
2023-04-02T08:52:53.194Z,9.1
2023-04-02T08:57:53.300Z,9.1
2023-04-02T09:02:53.397Z,9.1
2023-04-02T09:07:53.219Z,9.1
2023-04-02T09:12:53.183Z,9.1
2023-04-02T09:17:57.655Z,9.1
2023-04-02T09:22:53.211Z,9.1
2023-04-02T09:27:53.155Z,9.2
2023-04-02T09:32:57.032Z,10.3
2023-04-02T09:37:53.254Z,10.3
2023-04-02T09:42:53.189Z,10.3
2023-04-02T09:47:55.741Z,9.2
2023-04-02T09:52:53.164Z,4.4
2023-04-02T09:57:53.180Z,4.2
2023-04-02T10:02:53.375Z,3.4
2023-04-02T10:07:53.229Z,3.4
2023-04-02T10:12:53.160Z,3.1
2023-04-02T10:17:53.265Z,3.1
2023-04-02T10:22:53.188Z,3.1
2023-04-02T10:27:53.241Z,3.1
2023-04-02T10:32:53.255Z,2.7
2023-04-02T10:37:53.214Z,3.6
2023-04-02T10:42:53.246Z,3.9
2023-04-02T10:47:53.280Z,4
2023-04-02T10:52:54.119Z,4
2023-04-02T10:57:53.231Z,4
2023-04-02T11:02:53.366Z,3.8
2023-04-02T11:07:53.173Z,4.2
2023-04-02T11:12:53.200Z,3.8
2023-04-02T11:17:53.288Z,3.6
2023-04-02T11:22:53.256Z,3.6
2023-04-02T11:27:53.155Z,3.6
2023-04-02T11:32:53.256Z,3.8
2023-04-02T11:37:53.199Z,6.4
2023-04-02T11:42:53.185Z,6.4
2023-04-02T11:47:53.268Z,6.4
2023-04-02T11:52:53.247Z,6.4
2023-04-02T11:57:53.229Z,3.8
2023-04-02T12:02:53.305Z,2.4
2023-04-02T12:07:53.237Z,2.1
2023-04-02T12:12:53.224Z,2.1
2023-04-02T12:17:53.638Z,2
2023-04-02T12:22:53.245Z,2.1
2023-04-02T12:27:53.248Z,2
2023-04-02T12:32:53.292Z,1.9
2023-04-02T12:37:53.242Z,2
2023-04-02T12:42:53.259Z,2.2
2023-04-02T12:47:56.279Z,2.2
2023-04-02T12:52:53.292Z,2.2
2023-04-02T12:57:53.179Z,2.2
2023-04-02T13:02:53.375Z,2.2
2023-04-02T13:07:53.237Z,3.3
2023-04-02T13:12:53.837Z,2.8
2023-04-02T13:17:53.285Z,2.8
2023-04-02T13:22:53.361Z,2.8
2023-04-02T13:27:53.221Z,3.5
2023-04-02T13:32:56.768Z,3.6
2023-04-02T13:37:53.284Z,3.7
2023-04-02T13:42:53.459Z,3.7
2023-04-02T13:47:53.288Z,3.7
2023-04-02T13:52:53.277Z,3.7
2023-04-02T13:57:53.242Z,3.5
2023-04-02T14:02:53.304Z,3.7
2023-04-02T14:07:53.185Z,3.7
2023-04-02T14:12:53.254Z,3.7
2023-04-02T14:17:53.260Z,4.2
2023-04-02T14:22:53.219Z,4.2
2023-04-02T14:27:53.252Z,4.5
2023-04-02T14:32:53.413Z,4.5
2023-04-02T14:37:53.202Z,4.5
2023-04-02T14:42:53.359Z,4.5
2023-04-02T14:47:53.320Z,5.7
2023-04-02T14:52:53.274Z,5.7
2023-04-02T14:57:53.416Z,7.3
2023-04-02T15:02:53.417Z,7.5
2023-04-02T15:07:53.222Z,8.2
2023-04-02T15:12:53.677Z,8.2
2023-04-02T15:17:53.263Z,8.6
2023-04-02T15:22:53.234Z,8.6
2023-04-02T15:27:53.286Z,8.6
2023-04-02T15:32:53.289Z,8.6
2023-04-02T15:37:53.193Z,7.5
2023-04-02T15:42:53.291Z,6.7
2023-04-02T15:47:56.222Z,6.7
2023-04-02T15:52:53.292Z,6.7
2023-04-02T15:57:53.244Z,6.9
2023-04-02T16:02:53.360Z,7.1
2023-04-02T16:07:53.302Z,7.1
2023-04-02T16:12:53.208Z,7.1
2023-04-02T16:17:53.447Z,7.1
2023-04-02T16:23:00.331Z,7.1
2023-04-02T16:27:53.211Z,5.6
2023-04-02T16:32:53.511Z,5.3
2023-04-02T16:37:53.291Z,5.3
2023-04-02T16:42:53.396Z,5.3
2023-04-02T16:47:57.085Z,5.6
2023-04-02T16:52:53.277Z,5.7
2023-04-02T16:57:53.382Z,6.5
2023-04-02T17:02:53.353Z,6.9
2023-04-02T17:07:53.362Z,8.2
2023-04-02T17:12:53.235Z,8.2
2023-04-02T17:17:56.770Z,8.2
2023-04-02T17:22:53.225Z,7.6
2023-04-02T17:27:53.252Z,6.9
2023-04-02T17:32:53.353Z,6.9
2023-04-02T17:38:00.984Z,6.1
2023-04-02T17:42:53.269Z,6
2023-04-02T17:47:57.023Z,6
2023-04-02T17:52:53.394Z,6.1
2023-04-02T17:57:53.237Z,7.7
2023-04-02T18:02:58.211Z,8.3
2023-04-02T18:07:53.220Z,7.7
2023-04-02T18:12:53.315Z,7.7
2023-04-02T18:17:55.492Z,7.7
2023-04-02T18:22:53.247Z,7.5
2023-04-02T18:27:53.269Z,7.5
2023-04-02T18:32:57.182Z,7.5
2023-04-02T18:37:53.382Z,7.5
2023-04-02T18:42:53.313Z,7.6
2023-04-02T18:47:55.045Z,7.7
2023-04-02T18:52:53.376Z,8.4
2023-04-02T18:57:53.269Z,8.4
2023-04-02T19:02:57.344Z,8.5
2023-04-02T19:07:53.227Z,8.6
2023-04-02T19:12:53.255Z,8.6
2023-04-02T19:17:57.920Z,8.5
2023-04-02T19:22:53.309Z,7.9
2023-04-02T19:27:53.296Z,7.6
2023-04-02T19:32:58.946Z,7.4
2023-04-02T19:37:53.285Z,7
2023-04-02T19:42:53.247Z,7
2023-04-02T19:47:54.380Z,7
2023-04-02T19:52:53.294Z,7.5
2023-04-02T19:58:04.390Z,7.5
2023-04-02T20:02:56.262Z,8.1
2023-04-02T20:07:53.336Z,8.6
2023-04-02T20:12:53.362Z,9.4
2023-04-02T20:18:03.426Z,10.1
2023-04-02T20:22:53.304Z,10.1
2023-04-02T20:27:53.235Z,9.4
2023-04-02T20:32:53.610Z,8.6
2023-04-02T20:37:53.305Z,8.6
2023-04-02T20:42:53.301Z,8.5
2023-04-02T20:47:55.785Z,8.1
2023-04-02T20:52:53.252Z,8
2023-04-02T20:57:53.240Z,7.5
2023-04-02T21:02:59.200Z,7.5
2023-04-02T21:07:53.239Z,7.5
2023-04-02T21:12:53.327Z,7.4
2023-04-02T21:17:54.129Z,7.4
2023-04-02T21:22:53.404Z,7.4
2023-04-02T21:27:53.279Z,7.4
2023-04-02T21:32:53.830Z,7.4
2023-04-02T21:42:53.259Z,8.1
2023-04-02T21:47:53.356Z,7.5
2023-04-02T21:52:53.277Z,6.9
2023-04-02T21:57:53.241Z,6.45
2023-04-02T22:02:53.382Z,6.3
2023-04-02T22:07:53.312Z,6.15
2023-04-02T22:12:53.486Z,6.3
2023-04-02T22:17:53.280Z,6.3
2023-04-02T22:22:53.389Z,6.3
2023-04-02T22:27:53.308Z,7
2023-04-02T22:32:53.307Z,7.5
2023-04-02T22:37:53.328Z,7.5
2023-04-02T22:42:53.299Z,7.5
2023-04-02T22:47:53.305Z,7
2023-04-02T22:52:53.318Z,6.2
2023-04-02T22:57:53.338Z,5
2023-04-02T23:02:53.262Z,5
2023-04-02T23:07:53.351Z,5
2023-04-02T23:12:53.319Z,5
2023-04-02T23:17:53.289Z,6.2
2023-04-02T23:22:53.411Z,6.3
2023-04-02T23:27:53.504Z,6.3
2023-04-02T23:32:53.849Z,6.3
2023-04-02T23:37:53.267Z,6.3
2023-04-02T23:42:53.382Z,6
2023-04-02T23:47:53.323Z,6.3
2023-04-02T23:52:53.263Z,6
2023-04-02T23:57:53.344Z,5.7
